createdAt,value
2022-10-23T00:01:17.538Z,17.81
2022-10-23T00:03:46.147Z,17.82
2022-10-23T00:06:15.179Z,17.47
2022-10-23T00:08:43.544Z,17.67
2022-10-23T00:11:14.688Z,17.50
2022-10-23T00:13:42.957Z,17.51
2022-10-23T00:16:11.253Z,17.25
2022-10-23T00:18:41.199Z,17.47
2022-10-23T00:21:11.674Z,17.37
2022-10-23T00:23:40.506Z,17.39
2022-10-23T00:26:11.119Z,16.90
2022-10-23T00:28:39.230Z,17.38
2022-10-23T00:31:07.476Z,17.05
2022-10-23T00:33:36.037Z,16.09
2022-10-23T00:36:07.556Z,15.58
2022-10-23T00:38:36.466Z,15.93
2022-10-23T00:41:05.597Z,15.75
2022-10-23T00:43:34.779Z,16.08
2022-10-23T00:46:03.114Z,15.89
2022-10-23T00:48:31.396Z,16.12
2022-10-23T00:50:59.636Z,16.19
2022-10-23T00:53:29.401Z,16.02
2022-10-23T00:56:00.123Z,16.21
2022-10-23T00:58:28.089Z,16.45
2022-10-23T01:00:57.505Z,16.16
2022-10-23T01:03:28.909Z,16.37
2022-10-23T01:06:01.836Z,16.41
2022-10-23T01:08:34.921Z,16.26
2022-10-23T01:11:08.022Z,16.19
2022-10-23T01:13:40.906Z,15.93
2022-10-23T01:16:13.197Z,16.03
2022-10-23T01:18:45.189Z,15.71
2022-10-23T01:21:19.718Z,15.17
2022-10-23T01:24:09.978Z,15.35
2022-10-23T01:27:05.961Z,15.66
2022-10-23T01:29:38.768Z,15.71
2022-10-23T01:32:10.499Z,15.60
2022-10-23T01:34:46.336Z,15.69
2022-10-23T01:37:17.367Z,15.69
2022-10-23T01:39:48.590Z,15.76
2022-10-23T01:42:20.301Z,15.54
2022-10-23T01:44:52.989Z,15.42
2022-10-23T01:47:25.205Z,15.19
2022-10-23T01:49:54.668Z,14.82
2022-10-23T01:52:23.179Z,15.01
2022-10-23T01:57:46.921Z,14.91
2022-10-23T02:00:18.832Z,14.66
2022-10-23T02:02:48.950Z,15.03
2022-10-23T02:05:20.038Z,14.73
2022-10-23T02:07:48.857Z,14.45
2022-10-23T02:10:17.167Z,14.07
2022-10-23T02:12:50.676Z,14.56
2022-10-23T02:15:25.777Z,14.24
2022-10-23T02:18:02.886Z,12.97
2022-10-23T02:20:38.534Z,12.99
2022-10-23T02:23:15.742Z,13.03
2022-10-23T02:25:48.761Z,13.52
2022-10-23T02:28:19.564Z,13.45
2022-10-23T02:30:51.434Z,13.78
2022-10-23T02:33:20.156Z,14.08
2022-10-23T02:35:49.510Z,14.65
2022-10-23T02:38:33.509Z,14.87
2022-10-23T02:41:12.422Z,15.00
2022-10-23T02:43:46.445Z,15.06
2022-10-23T02:46:22.551Z,15.01
2022-10-23T02:48:56.294Z,14.85
2022-10-23T02:51:32.420Z,15.06
2022-10-23T02:54:05.811Z,15.06
2022-10-23T02:56:38.967Z,14.88
2022-10-23T02:59:12.196Z,14.71
2022-10-23T03:01:46.923Z,14.54
2022-10-23T03:04:16.244Z,14.10
2022-10-23T03:06:44.523Z,14.21
2022-10-23T03:09:12.766Z,14.21
2022-10-23T03:11:41.020Z,14.32
2022-10-23T03:14:09.296Z,14.29
2022-10-23T03:16:37.492Z,14.24
2022-10-23T03:19:07.053Z,13.99
2022-10-23T03:21:35.332Z,13.36
2022-10-23T03:24:03.562Z,13.35
2022-10-23T03:26:32.082Z,13.01
2022-10-23T03:29:00.329Z,12.61
2022-10-23T03:31:28.606Z,12.82
2022-10-23T03:33:56.843Z,13.71
2022-10-23T03:36:26.575Z,13.98
2022-10-23T03:38:54.926Z,13.85
2022-10-23T03:41:23.138Z,13.81
2022-10-23T03:43:51.375Z,13.89
2022-10-23T03:46:19.602Z,13.52
2022-10-23T03:48:47.846Z,13.70
2022-10-23T03:51:16.033Z,13.45
2022-10-23T03:53:45.662Z,13.66
2022-10-23T03:56:14.104Z,13.47
2022-10-23T03:58:42.318Z,13.50
2022-10-23T04:01:10.837Z,13.96
2022-10-23T04:03:39.102Z,14.02
2022-10-23T04:06:07.908Z,13.56
2022-10-23T04:08:36.190Z,13.84
2022-10-23T04:11:05.938Z,13.12
2022-10-23T04:13:34.113Z,13.14
2022-10-23T04:16:02.484Z,13.07
2022-10-23T04:18:30.768Z,13.00
2022-10-23T04:20:58.983Z,13.11
2022-10-23T04:23:27.244Z,13.76
2022-10-23T04:25:57.515Z,14.22
2022-10-23T04:28:27.938Z,14.26
2022-10-23T04:30:56.165Z,13.80
2022-10-23T04:33:24.441Z,13.59
2022-10-23T04:35:52.750Z,13.39
2022-10-23T04:38:21.059Z,13.58
2022-10-23T04:40:49.346Z,14.09
2022-10-23T04:43:17.568Z,13.85
2022-10-23T04:45:47.237Z,14.38
2022-10-23T04:48:15.432Z,14.04
2022-10-23T04:50:43.702Z,13.88
2022-10-23T04:53:11.967Z,13.61
2022-10-23T04:55:40.230Z,13.54
2022-10-23T04:58:08.425Z,13.58
2022-10-23T05:00:36.790Z,13.74
2022-10-23T05:03:06.418Z,13.69
2022-10-23T05:05:34.681Z,13.98
2022-10-23T05:08:02.998Z,13.65
2022-10-23T05:10:31.386Z,14.09
2022-10-23T05:12:59.676Z,14.37
2022-10-23T05:15:27.969Z,14.32
2022-10-23T05:17:58.371Z,14.33
2022-10-23T05:20:30.084Z,14.32
2022-10-23T05:22:59.200Z,14.51
2022-10-23T05:25:27.469Z,14.30
2022-10-23T05:27:55.709Z,14.05
2022-10-23T05:30:23.989Z,13.23
2022-10-23T05:32:52.258Z,13.36
2022-10-23T05:35:23.713Z,13.64
2022-10-23T05:37:54.694Z,13.54
2022-10-23T05:40:23.945Z,13.48
2022-10-23T05:42:52.189Z,13.51
2022-10-23T05:45:20.399Z,13.98
2022-10-23T05:47:49.189Z,14.24
2022-10-23T05:50:17.700Z,14.59
2022-10-23T05:52:48.415Z,14.56
2022-10-23T05:55:18.297Z,14.02
2022-10-23T05:57:46.589Z,14.14
2022-10-23T06:00:15.054Z,14.10
2022-10-23T06:02:43.334Z,14.46
2022-10-23T06:05:11.567Z,13.46
2022-10-23T06:07:39.799Z,13.89
2022-10-23T06:10:08.525Z,14.08
2022-10-23T06:12:38.235Z,14.49
2022-10-23T06:15:07.761Z,14.59
2022-10-23T06:17:36.132Z,14.25
2022-10-23T06:20:04.858Z,14.44
2022-10-23T06:22:33.092Z,14.16
2022-10-23T06:25:01.279Z,14.20
2022-10-23T06:27:29.521Z,14.43
2022-10-23T06:29:59.156Z,13.84
2022-10-23T06:32:27.422Z,14.10
2022-10-23T06:34:55.655Z,13.70
2022-10-23T06:37:23.855Z,13.80
2022-10-23T06:39:52.119Z,14.00
2022-10-23T06:42:20.373Z,14.35
2022-10-23T06:44:48.625Z,14.91
2022-10-23T06:47:18.575Z,14.83
2022-10-23T06:49:46.904Z,15.05
2022-10-23T06:52:41.837Z,14.70
2022-10-23T06:55:03.250Z,14.47
2022-10-23T06:57:31.440Z,14.65
2022-10-23T06:59:59.673Z,14.08
2022-10-23T07:02:29.282Z,14.69
2022-10-23T07:04:57.514Z,14.43
2022-10-23T07:07:25.805Z,15.03
2022-10-23T07:09:54.032Z,15.07
2022-10-23T07:12:22.336Z,14.43
2022-10-23T07:14:50.543Z,15.22
2022-10-23T07:17:18.785Z,15.00
2022-10-23T07:19:48.816Z,15.14
2022-10-23T07:22:16.998Z,15.68
2022-10-23T07:24:45.197Z,15.32
2022-10-23T07:27:13.470Z,15.79
2022-10-23T07:29:42.089Z,16.11
2022-10-23T07:32:10.392Z,15.80
2022-10-23T07:34:38.897Z,15.78
2022-10-23T07:37:08.543Z,15.73
2022-10-23T07:39:36.742Z,15.89
2022-10-23T07:42:05.215Z,15.82
2022-10-23T07:44:33.400Z,16.25
2022-10-23T07:47:01.806Z,16.41
2022-10-23T07:49:30.297Z,16.49
2022-10-23T07:51:58.890Z,16.67
2022-10-23T07:54:28.727Z,16.47
2022-10-23T07:56:56.942Z,17.51
2022-10-23T07:59:25.181Z,18.27
2022-10-23T08:01:56.266Z,17.28
2022-10-23T08:04:24.960Z,17.87
2022-10-23T08:06:53.221Z,17.31
2022-10-23T08:09:21.417Z,17.24
2022-10-23T08:11:51.004Z,18.09
2022-10-23T08:14:19.209Z,19.02
2022-10-23T08:16:47.405Z,18.64
2022-10-23T08:19:15.653Z,18.59
2022-10-23T08:21:43.817Z,18.83
2022-10-23T08:24:13.803Z,18.57
2022-10-23T08:26:42.396Z,19.01
2022-10-23T08:29:11.998Z,19.21
2022-10-23T08:31:40.228Z,19.09
2022-10-23T08:34:08.519Z,19.21
2022-10-23T08:36:39.184Z,19.21
2022-10-23T08:39:07.788Z,19.00
2022-10-23T08:41:38.601Z,19.48
2022-10-23T08:44:14.047Z,18.99
2022-10-23T08:46:44.553Z,19.27
2022-10-23T08:49:19.154Z,19.67
2022-10-23T08:51:49.540Z,18.88
2022-10-23T08:54:20.681Z,19.48
2022-10-23T08:56:51.930Z,19.67
2022-10-23T08:59:27.913Z,20.09
2022-10-23T09:02:01.059Z,20.33
2022-10-23T09:04:29.798Z,20.41
2022-10-23T09:07:01.471Z,20.74
2022-10-23T09:09:42.607Z,21.47
2022-10-23T09:12:15.169Z,20.66
2022-10-23T09:15:06.572Z,20.88
2022-10-23T09:17:37.942Z,20.60
2022-10-23T09:20:15.752Z,21.51
2022-10-23T09:22:44.383Z,21.88
2022-10-23T09:25:16.704Z,21.73
2022-10-23T09:27:50.670Z,21.96
2022-10-23T09:30:33.732Z,22.02
2022-10-23T09:33:02.166Z,21.73
2022-10-23T09:35:31.300Z,21.70
2022-10-23T09:37:59.713Z,22.29
2022-10-23T09:40:33.414Z,22.19
2022-10-23T09:43:04.723Z,22.67
2022-10-23T09:45:36.078Z,22.78
2022-10-23T09:48:10.660Z,22.15
2022-10-23T09:50:43.253Z,22.63
2022-10-23T09:53:17.230Z,23.16
2022-10-23T09:55:52.826Z,23.17
2022-10-23T09:58:22.877Z,23.05
2022-10-23T10:00:54.751Z,22.33
2022-10-23T10:03:25.028Z,23.66
2022-10-23T10:06:01.078Z,22.49
2022-10-23T10:08:36.752Z,22.73
2022-10-23T10:11:10.944Z,23.71
2022-10-23T10:13:53.347Z,23.23
2022-10-23T10:16:29.214Z,22.87
2022-10-23T10:19:04.876Z,22.98
2022-10-23T10:21:37.973Z,22.42
2022-10-23T10:24:09.443Z,23.19
2022-10-23T10:26:42.647Z,22.89
2022-10-23T10:29:17.517Z,23.59
2022-10-23T10:31:57.994Z,24.01
2022-10-23T10:34:28.643Z,23.59
2022-10-23T10:36:57.009Z,24.41
2022-10-23T10:39:40.637Z,24.82
2022-10-23T10:42:43.653Z,24.32
2022-10-23T10:45:20.084Z,23.95
2022-10-23T10:48:01.045Z,23.97
2022-10-23T10:50:32.491Z,24.26
2022-10-23T10:53:07.009Z,23.97
2022-10-23T10:55:39.089Z,23.77
2022-10-23T10:58:13.927Z,23.78
2022-10-23T11:00:42.277Z,24.77
2022-10-23T11:03:20.402Z,24.97
2022-10-23T11:05:50.603Z,24.93
2022-10-23T11:08:22.250Z,24.24
2022-10-23T11:10:54.012Z,24.17
2022-10-23T11:13:27.604Z,25.02
2022-10-23T11:15:59.658Z,24.35
2022-10-23T11:18:31.033Z,23.57
2022-10-23T11:21:08.340Z,23.81
2022-10-23T11:24:06.452Z,23.90
2022-10-23T11:26:43.274Z,24.71
2022-10-23T11:29:44.873Z,24.63
2022-10-23T11:32:29.160Z,24.43
2022-10-23T11:35:06.870Z,25.50
2022-10-23T11:37:35.168Z,25.13
2022-10-23T11:40:13.762Z,25.31
2022-10-23T11:42:48.717Z,25.13
2022-10-23T11:45:36.046Z,25.45
2022-10-23T11:48:05.841Z,25.57
2022-10-23T11:50:51.066Z,25.89
2022-10-23T11:53:28.455Z,26.19
2022-10-23T11:56:01.828Z,25.70
2022-10-23T11:58:42.685Z,25.60
2022-10-23T12:01:24.283Z,25.90
2022-10-23T12:03:55.607Z,26.04
2022-10-23T12:06:27.725Z,24.83
2022-10-23T12:09:00.291Z,25.34
2022-10-23T12:11:41.067Z,26.41
2022-10-23T12:14:31.539Z,26.90
2022-10-23T12:16:59.601Z,26.46
2022-10-23T12:19:30.006Z,25.16
2022-10-23T12:22:02.381Z,26.46
2022-10-23T12:24:56.789Z,26.84
2022-10-23T12:27:32.551Z,25.79
2022-10-23T12:30:22.166Z,26.72
2022-10-23T12:33:03.117Z,25.47
2022-10-23T12:35:52.381Z,26.47
2022-10-23T12:38:23.271Z,26.31
2022-10-23T12:40:53.281Z,26.04
2022-10-23T12:43:26.224Z,25.82
2022-10-23T12:45:55.643Z,26.18
2022-10-23T12:48:25.478Z,26.17
2022-10-23T12:50:55.954Z,26.54
2022-10-23T12:53:25.688Z,26.02
2022-10-23T12:58:30.121Z,26.08
2022-10-23T13:00:59.771Z,26.30
2022-10-23T13:03:30.065Z,26.22
2022-10-23T13:06:02.651Z,26.16
2022-10-23T13:08:35.472Z,25.79
2022-10-23T13:11:04.497Z,25.69
2022-10-23T13:13:32.789Z,25.76
2022-10-23T13:16:01.082Z,25.68
2022-10-23T13:18:29.381Z,25.80
2022-10-23T13:20:59.460Z,25.61
2022-10-23T13:23:32.130Z,26.01
2022-10-23T13:26:03.087Z,26.49
2022-10-23T13:28:33.488Z,26.39
2022-10-23T13:31:03.143Z,26.41
2022-10-23T13:33:37.166Z,26.27
2022-10-23T13:36:08.286Z,26.05
2022-10-23T13:38:37.866Z,25.05
2022-10-23T13:41:13.294Z,25.85
2022-10-23T13:43:41.906Z,26.90
2022-10-23T13:46:14.672Z,26.91
2022-10-23T13:48:43.250Z,26.36
2022-10-23T13:51:13.721Z,26.69
2022-10-23T13:53:42.289Z,26.67
2022-10-23T13:56:13.271Z,26.20
2022-10-23T13:58:41.988Z,26.46
2022-10-23T14:01:19.138Z,26.47
2022-10-23T14:03:48.086Z,25.95
2022-10-23T14:06:16.352Z,25.98
2022-10-23T14:08:44.590Z,26.19
2022-10-23T14:13:48.924Z,26.00
2022-10-23T14:16:18.937Z,26.13
2022-10-23T14:18:47.178Z,26.14
2022-10-23T14:21:16.884Z,26.14
2022-10-23T14:23:45.173Z,25.81
2022-10-23T14:26:16.675Z,26.24
2022-10-23T14:28:45.692Z,25.80
2022-10-23T14:31:15.375Z,25.45
2022-10-23T14:33:44.358Z,24.91
2022-10-23T14:36:13.432Z,24.86
2022-10-23T14:38:41.672Z,25.16
2022-10-23T14:41:15.073Z,24.64
2022-10-23T14:43:43.654Z,24.62
2022-10-23T14:46:13.045Z,24.56
2022-10-23T14:48:45.418Z,25.13
2022-10-23T14:51:20.482Z,25.33
2022-10-23T14:53:49.758Z,24.85
2022-10-23T14:56:19.321Z,25.06
2022-10-23T14:58:47.575Z,25.32
2022-10-23T15:01:15.939Z,24.76
2022-10-23T15:03:44.396Z,24.76
2022-10-23T15:06:16.075Z,24.43
2022-10-23T15:08:47.059Z,24.61
2022-10-23T15:11:15.373Z,24.93
2022-10-23T15:13:45.019Z,24.20
2022-10-23T15:16:13.592Z,24.64
2022-10-23T15:18:42.638Z,23.99
2022-10-23T15:21:11.966Z,24.37
2022-10-23T15:23:41.939Z,24.34
2022-10-23T15:26:13.427Z,24.04
2022-10-23T15:28:41.616Z,23.48
2022-10-23T15:34:02.001Z,24.50
2022-10-23T15:36:30.573Z,24.04
2022-10-23T15:38:58.825Z,24.85
2022-10-23T15:41:29.840Z,25.11
2022-10-23T15:43:59.095Z,24.51
2022-10-23T15:46:27.575Z,24.63
2022-10-23T15:48:56.028Z,24.47
2022-10-23T15:51:25.702Z,24.68
2022-10-23T15:53:53.936Z,24.82
2022-10-23T15:56:22.302Z,24.75
2022-10-23T15:58:51.120Z,24.12
2022-10-23T16:01:19.996Z,24.34
2022-10-23T16:03:48.669Z,24.22
2022-10-23T16:06:18.935Z,23.66
2022-10-23T16:08:48.956Z,23.79
2022-10-23T16:11:19.392Z,23.55
2022-10-23T16:13:48.225Z,22.79
2022-10-23T16:16:17.488Z,23.27
2022-10-23T16:18:46.483Z,23.41
2022-10-23T16:21:19.718Z,23.92
2022-10-23T16:23:49.840Z,23.96
2022-10-23T16:26:18.913Z,23.76
2022-10-23T16:28:48.270Z,23.94
2022-10-23T16:31:20.645Z,23.97
2022-10-23T16:33:49.626Z,23.12
2022-10-23T16:36:18.438Z,23.59
2022-10-23T16:38:46.687Z,23.64
2022-10-23T16:41:16.796Z,23.60
2022-10-23T16:43:45.339Z,23.55
2022-10-23T16:46:15.614Z,23.12
2022-10-23T16:51:57.487Z,23.26
2022-10-23T16:54:26.525Z,23.18
2022-10-23T16:56:56.224Z,23.02
2022-10-23T16:59:25.090Z,22.71
2022-10-23T17:01:54.082Z,22.65
2022-10-23T17:04:22.466Z,22.98
2022-10-23T17:06:50.823Z,22.89
2022-10-23T17:09:19.476Z,22.84
2022-10-23T17:11:48.021Z,22.86
2022-10-23T17:14:20.882Z,22.94
2022-10-23T17:16:50.951Z,22.82
2022-10-23T17:22:19.596Z,22.72
2022-10-23T17:24:50.303Z,22.44
2022-10-23T17:27:24.314Z,22.38
2022-10-23T17:29:54.056Z,22.67
2022-10-23T17:32:22.482Z,22.49
2022-10-23T17:34:50.815Z,22.21
2022-10-23T17:37:19.123Z,22.56
2022-10-23T17:39:47.430Z,22.79
2022-10-23T17:42:15.982Z,22.67
2022-10-23T17:44:44.222Z,22.94
2022-10-23T17:47:13.964Z,22.26
2022-10-23T17:49:45.385Z,22.42
2022-10-23T17:52:15.154Z,22.87
2022-10-23T17:54:43.418Z,22.86
2022-10-23T17:57:11.826Z,22.87
2022-10-23T17:59:40.101Z,22.04
2022-10-23T18:02:08.644Z,22.07
2022-10-23T18:04:38.493Z,22.76
2022-10-23T18:07:06.742Z,22.42
2022-10-23T18:09:35.455Z,22.59
2022-10-23T18:12:03.676Z,22.10
2022-10-23T18:14:34.322Z,22.07
2022-10-23T18:17:05.122Z,21.95
2022-10-23T18:19:33.376Z,21.72
2022-10-23T18:22:03.061Z,21.17
2022-10-23T18:24:32.014Z,20.75
2022-10-23T18:27:00.382Z,20.48
2022-10-23T18:29:28.637Z,20.82
2022-10-23T18:31:56.830Z,21.49
2022-10-23T18:34:25.730Z,21.80
2022-10-23T18:36:55.774Z,21.55
2022-10-23T18:39:26.559Z,19.84
2022-10-23T18:41:57.282Z,20.69
2022-10-23T18:44:28.802Z,20.90
2022-10-23T18:46:57.850Z,20.68
2022-10-23T18:49:26.125Z,21.40
2022-10-23T18:51:54.403Z,21.55
2022-10-23T18:54:23.159Z,21.72
2022-10-23T18:56:52.808Z,21.68
2022-10-23T18:59:21.861Z,21.76
2022-10-23T19:01:50.988Z,21.88
2022-10-23T19:04:19.821Z,21.86
2022-10-23T19:06:49.463Z,21.94
2022-10-23T19:09:18.086Z,21.75
2022-10-23T19:11:46.982Z,21.48
2022-10-23T19:14:16.612Z,21.89
2022-10-23T19:16:48.592Z,21.88
2022-10-23T19:19:19.874Z,21.92
2022-10-23T19:21:48.876Z,21.35
2022-10-23T19:24:20.697Z,21.42
2022-10-23T19:26:49.457Z,21.31
2022-10-23T19:29:20.893Z,21.46
2022-10-23T19:31:49.973Z,21.43
2022-10-23T19:34:19.930Z,21.35
2022-10-23T19:36:48.500Z,21.36
2022-10-23T19:39:16.903Z,20.61
2022-10-23T19:41:45.468Z,20.96
2022-10-23T19:44:14.368Z,21.28
2022-10-23T19:46:43.980Z,21.36
2022-10-23T19:49:12.594Z,19.97
2022-10-23T19:51:41.125Z,20.46
2022-10-23T19:54:10.635Z,21.06
2022-10-23T19:56:38.876Z,21.10
2022-10-23T19:59:07.284Z,21.03
2022-10-23T20:01:35.991Z,20.47
2022-10-23T20:04:05.906Z,20.29
2022-10-23T20:06:35.879Z,19.97
2022-10-23T20:09:04.852Z,20.77
2022-10-23T20:11:33.139Z,20.94
2022-10-23T20:14:01.321Z,21.01
2022-10-23T20:16:31.166Z,20.62
2022-10-23T20:18:59.650Z,20.87
2022-10-23T20:21:29.196Z,21.28
2022-10-23T20:23:58.177Z,21.33
2022-10-23T20:26:26.475Z,21.41
2022-10-23T20:28:56.280Z,21.20
2022-10-23T20:31:26.341Z,21.32
2022-10-23T20:33:55.273Z,21.09
2022-10-23T20:36:26.394Z,21.05
2022-10-23T20:38:56.547Z,21.14
2022-10-23T20:41:27.133Z,21.20
2022-10-23T20:43:56.215Z,21.01
2022-10-23T20:46:24.443Z,20.74
2022-10-23T20:48:52.760Z,20.69
2022-10-23T20:51:22.665Z,20.48
2022-10-23T20:53:51.379Z,20.99
2022-10-23T20:56:23.695Z,21.23
2022-10-23T20:58:52.126Z,20.71
2022-10-23T21:01:20.427Z,19.63
2022-10-23T21:03:50.984Z,19.58
2022-10-23T21:06:19.580Z,20.05
2022-10-23T21:08:47.822Z,19.70
2022-10-23T21:11:17.444Z,19.93
2022-10-23T21:13:47.533Z,19.90
2022-10-23T21:16:17.711Z,20.30
2022-10-23T21:18:46.878Z,20.76
2022-10-23T21:21:19.203Z,21.13
2022-10-23T21:23:47.989Z,20.95
2022-10-23T21:26:17.522Z,21.03
2022-10-23T21:28:55.856Z,21.27
2022-10-23T21:31:35.136Z,19.95
2022-10-23T21:34:03.538Z,19.90
2022-10-23T21:36:34.327Z,19.01
2022-10-23T21:39:08.114Z,19.10
2022-10-23T21:41:36.472Z,20.28
2022-10-23T21:44:06.939Z,20.80
2022-10-23T21:46:36.122Z,20.76
2022-10-23T21:49:04.820Z,19.69
2022-10-23T21:51:35.340Z,20.43
2022-10-23T21:54:03.438Z,20.13
2022-10-23T21:56:33.575Z,19.64
2022-10-23T21:59:03.119Z,19.70
2022-10-23T22:01:33.072Z,19.92
2022-10-23T22:04:01.430Z,19.71
2022-10-23T22:06:30.529Z,19.83
2022-10-23T22:09:00.067Z,20.23
2022-10-23T22:11:28.945Z,20.64
2022-10-23T22:13:57.485Z,20.95
2022-10-23T22:16:25.943Z,21.06
2022-10-23T22:18:55.644Z,21.19
2022-10-23T22:21:25.558Z,20.73
2022-10-23T22:26:43.642Z,21.23
2022-10-23T22:29:13.833Z,20.99
2022-10-23T22:31:45.551Z,21.10
2022-10-23T22:34:28.826Z,20.97
2022-10-23T22:37:12.779Z,21.22
2022-10-23T22:39:41.477Z,21.19
2022-10-23T22:42:09.981Z,21.43
2022-10-23T22:44:38.507Z,21.17
2022-10-23T22:47:07.253Z,21.43
2022-10-23T22:49:37.660Z,21.19
2022-10-23T22:52:05.972Z,21.35
2022-10-23T22:54:34.603Z,21.39
2022-10-23T22:57:02.999Z,21.56
2022-10-23T22:59:31.240Z,22.25
2022-10-23T23:01:59.671Z,22.14
2022-10-23T23:04:43.331Z,22.34
2022-10-23T23:07:13.743Z,22.15
2022-10-23T23:09:43.206Z,22.00
2022-10-23T23:12:12.908Z,21.81
2022-10-23T23:14:42.011Z,21.88
2022-10-23T23:17:10.757Z,21.66
2022-10-23T23:19:39.070Z,21.91
2022-10-23T23:22:07.426Z,21.95
2022-10-23T23:24:37.105Z,22.51
2022-10-23T23:27:05.428Z,22.55
2022-10-23T23:29:33.761Z,21.90
2022-10-23T23:32:02.026Z,22.31
2022-10-23T23:34:30.429Z,21.77
2022-10-23T23:36:58.796Z,22.00
2022-10-23T23:39:28.358Z,21.70
2022-10-23T23:41:58.026Z,21.84
2022-10-23T23:44:26.322Z,21.97
2022-10-23T23:46:54.604Z,21.88
2022-10-23T23:49:23.010Z,21.98
2022-10-23T23:51:51.493Z,22.10
2022-10-23T23:54:19.779Z,22.03
2022-10-23T23:56:47.972Z,22.69
2022-10-23T23:59:17.570Z,23.05
